Time;durP1;ratioP1;P1;durP2;ratioP2;P2;SDS_P1;SDS_P2;PMS_P1;PMS_P2;Temp;Humidity;BMP_temperature;BMP_pressure;BME280_temperature;BME280_humidity;BME280_pressure;Samples;Min_cycle;Max_cycle;Signal;HPM_P1;HPM_P2
2023/08/06 00:00:00;;;;;;;4.60;2.70;;;;;;;14.55;100.00;99615.78;678710;29;941;-60
2023/08/06 00:00:22;;;;;;;4.75;2.75;;;;;;;14.59;100.00;99619.13;676802;29;1168;-61
2023/08/06 00:00:42;;;;;;;4.60;2.50;;;;;;;14.58;100.00;99620.06;678503;29;5332;-60
2023/08/06 00:01:03;;;;;;;4.47;2.40;;;;;;;14.55;100.00;99615.78;677435;29;874;-61
2023/08/06 00:01:25;;;;;;;4.70;2.50;;;;;;;14.58;100.00;99620.06;677331;29;915;-61
2023/08/06 00:01:45;;;;;;;4.82;2.70;;;;;;;14.64;100.00;99614.59;678306;29;901;-60
2023/08/06 00:02:05;;;;;;;4.20;2.53;;;;;;;14.66;100.00;99617.16;678913;29;1339;-60
2023/08/06 00:02:26;;;;;;;4.33;2.60;;;;;;;14.61;100.00;99615.53;677175;29;1081;-62
2023/08/06 00:02:46;;;;;;;4.50;2.63;;;;;;;14.57;100.00;99616.56;678973;29;1421;-60
2023/08/06 00:03:07;;;;;;;5.00;2.60;;;;;;;14.54;100.00;99615.81;678643;29;960;-60
2023/08/06 00:03:27;;;;;;;6.03;2.90;;;;;;;14.55;100.00;99615.78;676166;29;905;-61
2023/08/06 00:03:47;;;;;;;5.35;2.67;;;;;;;14.59;100.00;99612.13;677977;28;4404;-59
2023/08/06 00:04:08;;;;;;;6.57;2.43;;;;;;;14.58;100.00;99618.28;676725;29;1024;-61
2023/08/06 00:04:28;;;;;;;6.80;2.50;;;;;;;14.58;100.00;99620.06;676440;29;1320;-60
2023/08/06 00:04:48;;;;;;;6.43;2.80;;;;;;;14.57;100.00;99623.63;679077;29;870;-60
2023/08/06 00:05:09;;;;;;;5.60;2.70;;;;;;;14.55;100.00;99620.19;679622;29;1450;-58
2023/08/06 00:05:29;;;;;;;5.10;2.67;;;;;;;14.52;100.00;99610.63;676982;29;1046;-60
2023/08/06 00:05:50;;;;;;;5.17;2.53;;;;;;;14.51;100.00;99610.69;678969;29;849;-61
2023/08/06 00:06:10;;;;;;;5.07;2.80;;;;;;;14.50;100.00;99615.09;679163;29;1244;-60
2023/08/06 00:06:30;;;;;;;4.83;2.60;;;;;;;14.52;100.00;99621.13;677003;29;1014;-59
2023/08/06 00:06:51;;;;;;;4.43;2.63;;;;;;;14.52;100.00;99615.88;676557;28;4357;-59
2023/08/06 00:07:11;;;;;;;4.15;2.50;;;;;;;14.55;100.00;99621.06;678374;29;980;-59
2023/08/06 00:07:31;;;;;;;4.30;2.67;;;;;;;14.62;100.00;99608.50;676281;29;1177;-61
2023/08/06 00:07:52;;;;;;;4.70;3.00;;;;;;;14.68;100.00;99612.72;676996;29;925;-61
2023/08/06 00:08:12;;;;;;;4.77;3.20;;;;;;;14.67;100.00;99611.00;676221;29;854;-61
2023/08/06 00:08:33;;;;;;;4.23;2.50;;;;;;;14.65;100.00;99608.44;675696;29;1102;-62
2023/08/06 00:08:54;;;;;;;4.25;2.35;;;;;;;14.62;100.00;99609.41;676239;29;800;-60
2023/08/06 00:09:15;;;;;;;4.40;2.65;;;;;;;14.60;100.00;99608.56;678076;29;913;-60
2023/08/06 00:09:35;;;;;;;4.53;2.60;;;;;;;14.60;100.00;99605.09;678186;29;1187;-60
2023/08/06 00:09:55;;;;;;;5.23;2.70;;;;;;;14.57;100.00;99608.69;679745;29;4444;-60
2023/08/06 00:10:17;;;;;;;4.82;2.70;;;;;;;14.57;100.00;99611.31;678284;29;1379;-62
2023/08/06 00:10:39;;;;;;;4.28;2.53;;;;;;;14.56;100.00;99606.97;680769;29;1083;-62
2023/08/06 00:11:00;;;;;;;5.40;2.35;;;;;;;14.65;100.00;99608.44;680662;29;818;-61
2023/08/06 00:11:20;;;;;;;4.93;2.57;;;;;;;14.63;100.00;99605.00;680837;28;1063;-62
2023/08/06 00:11:41;;;;;;;4.13;2.53;;;;;;;14.61;100.00;99607.66;679486;29;1927;-63
2023/08/06 00:12:01;;;;;;;4.15;2.20;;;;;;;14.63;100.00;99602.38;678162;29;905;-60
2023/08/06 00:12:22;;;;;;;4.35;2.50;;;;;;;14.61;100.00;99604.19;677502;29;879;-60
2023/08/06 00:12:43;;;;;;;4.65;2.75;;;;;;;14.60;100.00;99607.72;677479;28;4456;-62
2023/08/06 00:13:04;;;;;;;5.18;2.80;;;;;;;14.58;100.00;99604.28;677345;29;1322;-60
2023/08/06 00:13:26;;;;;;;4.70;2.67;;;;;;;14.56;100.00;99606.13;678010;28;1212;-61
2023/08/06 00:13:47;;;;;;;5.00;2.60;;;;;;;14.54;100.00;99607.94;680923;29;1000;-62
2023/08/06 00:14:07;;;;;;;4.83;2.80;;;;;;;14.50;100.00;99601.94;680020;29;913;-61
2023/08/06 00:14:27;;;;;;;5.20;2.72;;;;;;;14.49;100.00;99608.13;679957;28;1015;-62
2023/08/06 00:14:52;;;;;;;5.23;2.60;;;;;;;14.47;100.00;99602.06;679341;29;1427;-61
2023/08/06 00:15:12;;;;;;;5.85;2.88;;;;;;;14.44;100.00;99604.78;679128;29;1473;-61
2023/08/06 00:15:33;;;;;;;4.82;2.80;;;;;;;14.43;100.00;99603.94;677632;29;969;-61
2023/08/06 00:15:53;;;;;;;4.43;2.67;;;;;;;14.42;100.00;99606.63;677439;28;4347;-61
2023/08/06 00:16:14;;;;;;;4.20;2.50;;;;;;;14.42;100.00;99598.75;677543;29;3781;-60
2023/08/06 00:16:34;;;;;;;4.73;2.70;;;;;;;14.45;100.00;99604.75;677278;29;2276;-61
2023/08/06 00:16:54;;;;;;;5.72;2.70;;;;;;;14.48;100.00;99602.00;678326;29;818;-62
2023/08/06 00:17:15;;;;;;;5.83;2.63;;;;;;;14.48;100.00;99602.00;676879;29;921;-61
2023/08/06 00:17:35;;;;;;;5.20;2.60;;;;;;;14.46;100.00;99601.19;678003;29;1914;-61
2023/08/06 00:17:55;;;;;;;5.53;2.50;;;;;;;14.45;100.00;99596.00;678465;29;1420;-62
2023/08/06 00:18:16;;;;;;;5.80;2.60;;;;;;;14.45;100.00;99604.75;677727;29;2618;-62
2023/08/06 00:18:36;;;;;;;5.23;2.77;;;;;;;14.43;100.00;99600.47;678333;29;814;-62
2023/08/06 00:18:57;;;;;;;4.97;2.60;;;;;;;14.42;100.00;99596.97;676500;29;4529;-61
2023/08/06 00:19:17;;;;;;;5.38;2.88;;;;;;;14.48;100.00;99593.25;677550;29;1851;-61
2023/08/06 00:19:37;;;;;;;5.53;2.77;;;;;;;14.52;100.00;99594.84;678277;29;1021;-61
2023/08/06 00:19:58;;;;;;;5.13;2.53;;;;;;;14.50;100.00;99594.06;679286;29;1300;-59
2023/08/06 00:20:18;;;;;;;3.97;2.45;;;;;;;14.54;100.00;99598.28;676647;29;2608;-61
2023/08/06 00:20:40;;;;;;;6.10;2.60;;;;;;;14.52;100.00;99594.00;678661;29;910;-61
2023/08/06 00:21:00;;;;;;;5.95;2.70;;;;;;;14.50;100.00;99601.94;676929;29;956;-62
2023/08/06 00:21:21;;;;;;;5.43;2.97;;;;;;;14.49;100.00;99592.34;676330;29;1786;-61
2023/08/06 00:21:41;;;;;;;4.93;2.60;;;;;;;14.48;100.00;99604.63;676988;29;4598;-61
2023/08/06 00:22:02;;;;;;;4.85;2.65;;;;;;;14.43;100.00;99600.47;677821;29;1226;-60
2023/08/06 00:22:22;;;;;;;5.33;2.70;;;;;;;14.40;100.00;99590.94;676330;29;2339;-61
2023/08/06 00:22:43;;;;;;;5.03;2.58;;;;;;;14.35;100.00;99592.00;678034;29;1246;-60
2023/08/06 00:23:03;;;;;;;4.70;2.80;;;;;;;14.34;100.00;99598.19;678266;29;1331;-62
2023/08/06 00:23:23;;;;;;;4.55;2.60;;;;;;;14.33;100.00;99597.34;676778;29;1924;-61
2023/08/06 00:23:44;;;;;;;4.30;2.57;;;;;;;14.34;100.00;99601.66;678132;29;862;-60
2023/08/06 00:24:04;;;;;;;4.60;2.57;;;;;;;14.34;100.00;99592.91;678004;29;954;-61
2023/08/06 00:24:24;;;;;;;4.95;2.67;;;;;;;14.32;100.00;99592.97;676051;29;1801;-61
2023/08/06 00:24:45;;;;;;;5.07;2.80;;;;;;;14.34;100.00;99590.28;675860;29;4425;-60
2023/08/06 00:25:06;;;;;;;4.82;2.80;;;;;;;14.31;100.00;99591.25;676347;29;1333;-61
2023/08/06 00:25:26;;;;;;;4.40;2.60;;;;;;;14.31;100.00;99597.38;675103;29;1800;-61
2023/08/06 00:25:46;;;;;;;4.40;2.75;;;;;;;14.30;100.00;99595.69;677036;29;878;-61
2023/08/06 00:26:07;;;;;;;4.43;2.60;;;;;;;14.29;100.00;99591.31;676658;29;941;-61
2023/08/06 00:26:27;;;;;;;5.30;2.47;;;;;;;14.30;100.00;99600.06;677578;29;1716;-61
2023/08/06 00:26:48;;;;;;;6.33;2.60;;;;;;;14.29;100.00;99598.38;678655;29;905;-61
2023/08/06 00:27:08;;;;;;;5.38;2.63;;;;;;;14.28;100.00;99596.63;677581;29;924;-62
2023/08/06 00:27:28;;;;;;;5.33;2.90;;;;;;;14.28;100.00;99596.63;677464;29;1756;-62
2023/08/06 00:27:49;;;;;;;6.43;2.70;;;;;;;14.24;100.00;99595.88;676155;29;4323;-60
2023/08/06 00:28:09;;;;;;;4.78;2.65;;;;;;;14.24;100.00;99595.03;677639;29;1044;-61
2023/08/06 00:28:30;;;;;;;4.80;2.80;;;;;;;14.23;100.00;99593.31;677614;29;2268;-61
2023/08/06 00:28:50;;;;;;;6.10;2.72;;;;;;;14.24;100.00;99593.25;677374;29;816;-61
2023/08/06 00:29:10;;;;;;;5.50;2.70;;;;;;;14.26;100.00;99596.69;677806;29;1114;-61
2023/08/06 00:29:31;;;;;;;4.90;2.50;;;;;;;14.26;100.00;99601.09;676315;29;2275;-62
2023/08/06 00:29:51;;;;;;;4.40;2.50;;;;;;;14.26;100.00;99599.31;677885;29;1444;-61
2023/08/06 00:30:12;;;;;;;4.28;2.70;;;;;;;14.33;100.00;99594.72;678501;29;925;-61
2023/08/06 00:30:32;;;;;;;5.07;2.70;;;;;;;14.30;100.00;99593.03;678102;29;2187;-60
2023/08/06 00:30:54;;;;;;;6.10;2.60;;;;;;;14.20;100.00;99594.28;675912;29;4475;-61
2023/08/06 00:31:14;;;;;;;6.18;2.65;;;;;;;14.17;100.00;99590.94;680780;29;2979;-61
2023/08/06 00:31:35;;;;;;;4.77;2.70;;;;;;;14.18;100.00;99590.88;677554;29;2489;-60
2023/08/06 00:31:56;;;;;;;4.68;2.70;;;;;;;14.19;100.00;99592.59;674358;29;1379;-62
2023/08/06 00:32:19;;;;;;;5.70;2.75;;;;;;;14.21;100.00;99593.38;673103;29;1796;-62
2023/08/06 00:32:39;;;;;;;5.30;2.57;;;;;;;14.23;100.00;99594.19;673709;29;1332;-61
2023/08/06 00:33:00;;;;;;;5.43;2.50;;;;;;;14.24;100.00;99601.13;670755;29;1162;-60
2023/08/06 00:33:21;;;;;;;4.97;2.60;;;;;;;14.25;100.00;99591.50;670191;29;1819;-62
2023/08/06 00:33:42;;;;;;;4.70;2.72;;;;;;;14.26;100.00;99598.44;673124;29;4414;-60
2023/08/06 00:34:02;;;;;;;5.20;2.43;;;;;;;14.24;100.00;99590.63;673779;29;774;-61
2023/08/06 00:34:22;;;;;;;5.28;2.40;;;;;;;14.27;100.00;99601.06;675203;29;2333;-64
2023/08/06 00:34:43;;;;;;;4.83;2.43;;;;;;;14.27;100.00;99595.78;676454;29;914;-61
2023/08/06 00:35:04;;;;;;;4.15;2.58;;;;;;;14.24;100.00;99595.88;675579;29;1368;-60
2023/08/06 00:35:24;;;;;;;4.40;2.60;;;;;;;14.24;100.00;99595.88;676340;29;2274;-61
2023/08/06 00:35:46;;;;;;;5.13;2.67;;;;;;;14.24;100.00;99595.03;676959;29;1392;-61
2023/08/06 00:36:06;;;;;;;5.13;2.70;;;;;;;14.22;100.00;99599.47;674369;29;1585;-62
2023/08/06 00:36:27;;;;;;;4.57;2.57;;;;;;;14.23;100.00;99599.44;677611;29;2295;-61
2023/08/06 00:36:47;;;;;;;4.28;2.40;;;;;;;14.23;100.00;99599.44;676112;29;4476;-61
2023/08/06 00:37:08;;;;;;;4.80;2.60;;;;;;;14.22;100.00;99597.72;677027;29;865;-61
2023/08/06 00:37:28;;;;;;;5.10;2.70;;;;;;;14.21;100.00;99601.25;676179;29;1223;-61
2023/08/06 00:37:48;;;;;;;5.37;2.57;;;;;;;14.20;100.00;99602.16;678123;29;734;-60
2023/08/06 00:38:09;;;;;;;6.17;2.80;;;;;;;14.19;100.00;99602.22;678616;29;889;-60
2023/08/06 00:38:29;;;;;;;4.80;2.70;;;;;;;14.16;100.00;99597.94;678569;29;1167;-61
2023/08/06 00:38:50;;;;;;;5.20;2.50;;;;;;;14.17;100.00;99607.53;679025;29;5834;-61
2023/08/06 00:39:10;;;;;;;5.80;2.55;;;;;;;14.18;100.00;99601.38;675748;29;1292;-60
2023/08/06 00:39:31;;;;;;;5.63;2.70;;;;;;;14.17;100.00;99597.03;674964;29;1790;-62
2023/08/06 00:39:51;;;;;;;5.83;2.60;;;;;;;14.14;100.00;99600.63;673515;29;4374;-61
2023/08/06 00:40:12;;;;;;;5.50;2.53;;;;;;;14.14;100.00;99599.78;674198;29;1056;-61
2023/08/06 00:40:32;;;;;;;5.50;2.77;;;;;;;14.12;100.00;99596.34;672006;29;1410;-60
2023/08/06 00:40:53;;;;;;;5.73;2.73;;;;;;;14.11;100.00;99594.63;671179;29;1561;-62
2023/08/06 00:41:13;;;;;;;4.60;2.58;;;;;;;14.06;100.00;99597.41;673388;29;1185;-61
2023/08/06 00:41:34;;;;;;;4.65;2.53;;;;;;;14.06;100.00;99597.41;673914;29;2323;-60
2023/08/06 00:41:54;;;;;;;4.83;2.70;;;;;;;14.04;100.00;99591.38;673227;29;1181;-60
2023/08/06 00:42:16;;;;;;;4.68;2.72;;;;;;;14.06;100.00;99589.53;673452;29;1312;-61
2023/08/06 00:42:36;;;;;;;4.88;2.70;;;;;;;14.09;100.00;99594.66;672987;29;1241;-61
2023/08/06 00:42:56;;;;;;;6.05;2.95;;;;;;;14.08;100.00;99590.34;676152;29;4499;-62
2023/08/06 00:43:17;;;;;;;5.07;2.90;;;;;;;14.06;100.00;99593.94;674685;29;910;-61
2023/08/06 00:43:37;;;;;;;4.70;2.50;;;;;;;14.05;100.00;99586.97;675401;29;1370;-61
2023/08/06 00:43:57;;;;;;;5.47;2.88;;;;;;;14.04;100.00;99587.88;678692;29;1367;-61
2023/08/06 00:44:18;;;;;;;5.00;2.70;;;;;;;14.10;100.00;99587.66;677647;29;2650;-61
2023/08/06 00:44:39;;;;;;;4.70;2.60;;;;;;;14.09;100.00;99588.56;680649;29;719;-61
2023/08/06 00:44:59;;;;;;;4.50;2.47;;;;;;;14.07;100.00;99595.66;671268;29;1238;-61
2023/08/06 00:45:20;;;;;;;5.00;2.50;;;;;;;14.04;100.00;99587.88;670446;29;1856;-62
2023/08/06 00:45:40;;;;;;;4.80;2.47;;;;;;;14.04;100.00;99598.38;669777;29;4428;-61
2023/08/06 00:46:03;;;;;;;4.17;2.53;;;;;;;14.01;100.00;99588.88;670863;29;835;-60
2023/08/06 00:46:24;;;;;;;4.82;2.80;;;;;;;14.01;100.00;99594.13;672964;29;2467;-62
2023/08/06 00:46:45;;;;;;;4.70;2.70;;;;;;;13.98;100.00;99588.94;672583;29;1409;-62
2023/08/06 00:47:07;;;;;;;4.38;2.50;;;;;;;13.94;100.00;99590.84;679263;29;1133;-60
2023/08/06 00:47:28;;;;;;;5.10;2.70;;;;;;;13.92;100.00;99594.44;677147;29;1088;-62
2023/08/06 00:47:48;;;;;;;4.50;2.60;;;;;;;13.89;100.00;99595.41;678129;29;901;-61
2023/08/06 00:48:10;;;;;;;5.28;2.50;;;;;;;13.89;100.00;99595.41;676657;29;1523;-60
2023/08/06 00:48:31;;;;;;;4.67;2.63;;;;;;;13.89;100.00;99591.94;680057;28;1832;-62
2023/08/06 00:48:52;;;;;;;4.45;2.72;;;;;;;13.97;100.00;99597.75;678217;29;4702;-61
2023/08/06 00:49:12;;;;;;;4.50;2.53;;;;;;;13.95;100.00;99597.78;679080;29;937;-61
2023/08/06 00:49:35;;;;;;;6.27;2.67;;;;;;;13.93;100.00;99596.16;677406;29;2347;-62
2023/08/06 00:49:55;;;;;;;5.85;2.85;;;;;;;13.90;100.00;99597.13;677724;29;2116;-61
2023/08/06 00:50:16;;;;;;;6.43;2.90;;;;;;;13.89;100.00;99592.78;676480;29;1264;-61
2023/08/06 00:50:36;;;;;;;4.85;2.75;;;;;;;13.88;100.00;99598.94;674977;29;2696;-61
2023/08/06 00:50:58;;;;;;;4.68;2.63;;;;;;;13.87;100.00;99596.38;677148;29;1165;-61
2023/08/06 00:51:19;;;;;;;5.20;2.83;;;;;;;13.86;100.00;99600.78;675359;29;2319;-62
2023/08/06 00:51:39;;;;;;;5.82;2.65;;;;;;;13.85;100.00;99595.56;674269;29;1922;-61
2023/08/06 00:52:00;;;;;;;4.43;2.63;;;;;;;13.84;100.00;99593.84;675683;29;4406;-62
2023/08/06 00:52:20;;;;;;;5.40;2.80;;;;;;;13.81;100.00;99594.81;677625;29;2077;-61
2023/08/06 00:52:40;;;;;;;4.80;2.75;;;;;;;13.80;100.00;99606.22;678542;29;1467;-62
2023/08/06 00:53:02;;;;;;;5.43;2.60;;;;;;;13.78;100.00;99601.03;678508;29;774;-61
2023/08/06 00:53:22;;;;;;;5.65;2.80;;;;;;;13.79;100.00;99600.13;677910;29;1472;-62
2023/08/06 00:53:43;;;;;;;5.10;2.75;;;;;;;13.78;100.00;99598.41;677472;29;890;-62
2023/08/06 00:54:04;;;;;;;4.97;2.75;;;;;;;13.76;100.00;99600.25;674587;29;1450;-60
2023/08/06 00:54:25;;;;;;;8.90;3.28;;;;;;;13.74;100.00;99612.56;674968;29;1593;-61
2023/08/06 00:54:45;;;;;;;7.70;2.90;;;;;;;13.74;100.00;99601.19;675180;29;4399;-61
2023/08/06 00:55:07;;;;;;;5.43;2.73;;;;;;;13.73;100.00;99605.56;675194;29;886;-61
2023/08/06 00:55:27;;;;;;;5.68;2.67;;;;;;;13.71;100.00;99601.31;673536;29;2210;-62
2023/08/06 00:55:48;;;;;;;5.03;2.73;;;;;;;13.71;100.00;99603.94;675259;29;1538;-62
2023/08/06 00:56:09;;;;;;;4.63;2.70;;;;;;;13.71;100.00;99607.41;677010;29;858;-62
2023/08/06 00:56:30;;;;;;;4.53;2.70;;;;;;;13.70;100.00;99603.06;676777;29;1855;-60
2023/08/06 00:56:50;;;;;;;5.50;2.53;;;;;;;13.71;100.00;99606.56;678949;29;976;-61
2023/08/06 00:57:13;;;;;;;5.77;2.60;;;;;;;13.68;100.00;99601.41;679357;29;1386;-62
2023/08/06 00:57:34;;;;;;;4.88;2.60;;;;;;;13.68;100.00;99601.41;677818;29;2078;-62
2023/08/06 00:57:56;;;;;;;6.00;2.72;;;;;;;13.65;100.00;99601.50;677887;28;4549;-60
2023/08/06 00:58:16;;;;;;;4.90;2.80;;;;;;;13.65;100.00;99609.38;677340;29;1003;-61
2023/08/06 00:58:38;;;;;;;4.43;2.70;;;;;;;13.64;100.00;99600.66;677137;29;2572;-61
2023/08/06 00:58:58;;;;;;;5.72;2.63;;;;;;;13.69;100.00;99595.25;676323;29;1570;-61
2023/08/06 00:59:19;;;;;;;5.47;2.60;;;;;;;13.72;100.00;99603.88;677686;29;1397;-62
2023/08/06 00:59:39;;;;;;;5.43;2.60;;;;;;;13.72;100.00;99597.75;678980;29;806;-62
2023/08/06 01:00:00;;;;;;;6.20;2.55;;;;;;;13.70;100.00;99599.59;679125;29;1037;-61
2023/08/06 01:00:22;;;;;;;5.05;2.60;;;;;;;13.70;100.00;99604.84;675071;29;2495;-60
2023/08/06 01:00:43;;;;;;;6.47;2.70;;;;;;;13.69;100.00;99603.97;676305;29;4559;-61
2023/08/06 01:01:04;;;;;;;6.07;2.70;;;;;;;13.68;100.00;99614.53;675703;29;1236;-61
2023/08/06 01:01:24;;;;;;;5.03;2.53;;;;;;;13.68;100.00;99606.66;673069;29;2411;-62
2023/08/06 01:01:45;;;;;;;5.67;2.53;;;;;;;13.67;100.00;99604.94;670966;29;932;-61
2023/08/06 01:02:06;;;;;;;5.63;2.65;;;;;;;13.63;100.00;99605.03;671002;29;1515;-62
2023/08/06 01:02:26;;;;;;;6.23;3.23;;;;;;;13.68;100.00;99602.28;667867;29;2281;-61
2023/08/06 01:02:48;;;;;;;5.10;2.60;;;;;;;13.72;100.00;99598.63;671181;29;1025;-61
2023/08/06 01:03:09;;;;;;;4.55;2.40;;;;;;;13.72;100.00;99605.63;673424;29;897;-61
2023/08/06 01:03:29;;;;;;;5.10;2.65;;;;;;;13.74;100.00;99609.06;672612;29;1764;-61
2023/08/06 01:03:50;;;;;;;5.30;2.57;;;;;;;13.75;100.00;99602.91;673638;29;4527;-62
2023/08/06 01:04:12;;;;;;;4.70;2.60;;;;;;;13.82;100.00;99600.91;676251;29;842;-61
2023/08/06 01:04:33;;;;;;;4.50;2.60;;;;;;;13.78;100.00;99598.41;677271;29;1759;-61
2023/08/06 01:04:53;;;;;;;4.28;2.53;;;;;;;13.82;100.00;99598.28;675303;29;918;-60
2023/08/06 01:05:14;;;;;;;4.60;2.60;;;;;;;13.87;100.00;99599.84;676090;29;1328;-61
2023/08/06 01:05:35;;;;;;;4.70;2.70;;;;;;;13.85;100.00;99599.03;674078;29;1314;-62
2023/08/06 01:05:55;;;;;;;5.00;2.60;;;;;;;13.84;100.00;99591.22;675439;29;917;-61
2023/08/06 01:06:23;;;;;;;4.82;2.95;;;;;;;13.84;100.00;99604.34;678135;29;1174;-61
2023/08/06 01:06:48;;;;;;;5.35;2.90;;;;;;;13.84;100.00;99599.94;675954;29;4407;-60
2023/08/06 01:07:24;;;;;;;5.10;2.80;;;;;;;13.82;100.00;99596.53;677396;29;862;-60
2023/08/06 01:07:56;;;;;;;4.93;2.60;;;;;;;13.81;100.00;99597.44;680556;28;1071;-61
2023/08/06 01:08:28;;;;;;;4.97;2.80;;;;;;;13.87;100.00;99597.22;677673;29;810;-60
2023/08/06 01:09:07;;;;;;;4.95;2.60;;;;;;;13.88;100.00;99592.84;678306;29;949;-60
2023/08/06 01:09:39;;;;;;;5.05;2.60;;;;;;;13.96;100.00;99590.78;677206;29;2431;-61
2023/08/06 01:10:08;;;;;;;8.63;3.50;;;;;;;13.92;100.00;99600.53;678549;29;4656;-61
2023/08/06 01:10:49;;;;;;;4.82;2.58;;;;;;;13.94;100.00;99593.47;676903;29;1731;-61
2023/08/06 01:11:34;;;;;;;4.70;2.70;;;;;;;13.92;100.00;99591.81;678939;29;1248;-62
2023/08/06 01:12:14;;;;;;;4.05;2.50;;;;;;;13.90;100.00;99597.13;678523;29;1489;-61
2023/08/06 01:13:00;;;;;;;5.68;2.67;;;;;;;13.88;100.00;99596.31;677520;29;3504;-60
2023/08/06 01:13:31;;;;;;;5.80;2.92;;;;;;;13.85;100.00;99592.94;676114;29;6304;-61
2023/08/06 01:14:02;;;;;;;5.32;2.95;;;;;;;13.85;100.00;99592.94;678864;29;1036;-61
2023/08/06 01:14:48;;;;;;;4.97;2.95;;;;;;;13.86;100.00;99589.38;678385;28;1736;-62
2023/08/06 01:15:17;;;;;;;4.00;2.50;;;;;;;13.85;100.00;99579.81;678224;29;1396;-61
2023/08/06 01:15:47;;;;;;;4.57;2.80;;;;;;;13.86;100.00;99589.38;680463;28;1727;-61
2023/08/06 01:16:09;;;;;;;5.22;3.00;;;;;;;13.85;100.00;99585.91;678300;29;6659;-61
2023/08/06 01:16:30;;;;;;;4.78;2.75;;;;;;;13.85;100.00;99592.94;675105;29;1831;-60
2023/08/06 01:16:51;;;;;;;4.53;2.70;;;;;;;13.84;100.00;99586.81;676577;29;1381;-62
2023/08/06 01:17:12;;;;;;;4.57;2.47;;;;;;;13.85;100.00;99583.28;676163;29;807;-62
2023/08/06 01:17:37;;;;;;;4.93;2.63;;;;;;;13.99;100.00;99585.41;675364;29;1739;-60
2023/08/06 01:17:58;;;;;;;4.70;2.70;;;;;;;14.02;100.00;99582.66;675678;29;1087;-62
2023/08/06 01:18:19;;;;;;;5.57;2.70;;;;;;;14.03;100.00;99576.50;675399;29;2236;-62
2023/08/06 01:18:41;;;;;;;5.18;2.70;;;;;;;14.03;100.00;99580.91;677602;29;1372;-61
2023/08/06 01:19:02;;;;;;;5.82;2.60;;;;;;;14.02;100.00;99573.94;679471;29;4787;-62
2023/08/06 01:19:22;;;;;;;5.38;2.70;;;;;;;14.00;100.00;99581.00;680059;29;2678;-62
2023/08/06 01:19:42;;;;;;;4.63;2.57;;;;;;;14.00;100.00;99574.00;681122;29;1322;-61
2023/08/06 01:20:03;;;;;;;6.00;2.67;;;;;;;13.98;100.00;99572.34;677816;29;1171;-61
2023/08/06 01:20:31;;;;;;;5.43;2.80;;;;;;;13.95;100.00;99574.16;677072;29;2431;-62
2023/08/06 01:20:52;;;;;;;5.30;2.60;;;;;;;13.96;100.00;99577.66;679276;29;879;-60
2023/08/06 01:21:13;;;;;;;6.10;2.80;;;;;;;13.96;100.00;99578.50;678535;29;835;-61
2023/08/06 01:21:33;;;;;;;5.28;2.90;;;;;;;13.98;100.00;99580.22;677677;29;1719;-61
2023/08/06 01:21:55;;;;;;;5.50;3.10;;;;;;;13.94;100.00;99582.97;677025;29;4467;-62
2023/08/06 01:22:15;;;;;;;5.37;3.00;;;;;;;13.93;100.00;99575.13;678509;29;1409;-60
2023/08/06 01:22:35;;;;;;;4.88;2.75;;;;;;;13.93;100.00;99576.00;676894;29;1164;-61
2023/08/06 01:22:56;;;;;;;5.00;2.63;;;;;;;13.92;100.00;99573.41;676674;29;1191;-61
2023/08/06 01:23:18;;;;;;;5.30;2.65;;;;;;;13.91;100.00;99577.78;676314;29;775;-62
2023/08/06 01:23:38;;;;;;;6.07;2.78;;;;;;;13.93;100.00;99575.13;674739;29;2541;-61
2023/08/06 01:23:59;;;;;;;5.82;2.67;;;;;;;13.91;100.00;99590.09;679347;29;745;-61
2023/08/06 01:24:19;;;;;;;4.35;2.60;;;;;;;13.93;100.00;99581.25;677368;29;1887;-62
2023/08/06 01:24:44;;;;;;;4.80;2.87;;;;;;;13.93;100.00;99581.25;678708;28;4400;-61
2023/08/06 01:25:05;;;;;;;5.10;2.78;;;;;;;13.93;100.00;99578.63;677444;29;1314;-61
2023/08/06 01:25:32;;;;;;;5.15;2.70;;;;;;;13.93;100.00;99580.41;676681;29;2432;-61
2023/08/06 01:26:17;;;;;;;5.18;2.70;;;;;;;13.93;100.00;99581.25;677179;29;1545;-61
2023/08/06 01:26:53;;;;;;;5.35;2.60;;;;;;;13.98;100.00;99578.44;676598;29;1763;-61
2023/08/06 01:27:26;;;;;;;4.97;2.70;;;;;;;14.02;100.00;99579.19;679733;29;2252;-61
2023/08/06 01:27:49;;;;;;;4.10;2.58;;;;;;;14.01;100.00;99580.09;679546;28;4408;-60
2023/08/06 01:28:45;;;;;;;4.15;2.50;;;;;;;14.00;100.00;99576.63;680003;29;996;-61
2023/08/06 01:29:05;;;;;;;4.80;2.70;;;;;;;13.94;100.00;99575.09;680945;29;2296;-60
2023/08/06 01:29:47;;;;;;;4.50;2.67;;;;;;;13.95;100.00;99573.31;680803;28;2281;-60
2023/08/06 01:30:18;;;;;;;6.50;2.90;;;;;;;13.91;100.00;99569.06;681346;28;1335;-60
2023/08/06 01:30:41;;;;;;;5.05;3.20;;;;;;;13.89;100.00;99571.75;680277;29;2520;-61
2023/08/06 01:31:05;;;;;;;5.13;2.95;;;;;;;13.93;100.00;99575.13;679490;29;4623;-61
2023/08/06 01:31:36;;;;;;;5.50;2.70;;;;;;;13.92;100.00;99569.00;680215;28;1624;-60
2023/08/06 01:31:58;;;;;;;5.95;3.05;;;;;;;13.90;100.00;99575.22;678685;29;1047;-61
2023/08/06 01:32:20;;;;;;;5.07;2.80;;;;;;;13.89;100.00;99573.53;681723;29;1019;-60
2023/08/06 01:32:44;;;;;;;6.15;2.80;;;;;;;13.86;100.00;99571.88;679651;29;941;-62
2023/08/06 01:33:07;;;;;;;5.57;2.80;;;;;;;13.84;100.00;99565.81;676781;29;826;-61
2023/08/06 01:33:32;;;;;;;4.80;2.60;;;;;;;13.83;100.00;99576.38;677519;29;2655;-61
2023/08/06 01:33:53;;;;;;;4.72;2.70;;;;;;;13.88;100.00;99574.44;676628;29;4760;-62
2023/08/06 01:34:20;;;;;;;6.47;2.70;;;;;;;13.87;100.00;99576.19;678203;29;999;-62
2023/08/06 01:34:45;;;;;;;4.70;2.75;;;;;;;13.86;100.00;99568.38;677383;29;838;-62
2023/08/06 01:35:06;;;;;;;6.00;2.60;;;;;;;13.86;100.00;99569.25;674719;29;1447;-60
2023/08/06 01:35:29;;;;;;;5.13;2.65;;;;;;;13.85;100.00;99567.53;674709;29;1443;-62
2023/08/06 01:35:53;;;;;;;4.65;2.70;;;;;;;13.86;100.00;99568.38;673573;29;921;-62
2023/08/06 01:36:17;;;;;;;5.68;3.05;;;;;;;13.85;100.00;99575.41;669617;29;1068;-61
2023/08/06 01:36:38;;;;;;;5.00;3.03;;;;;;;13.84;100.00;99562.31;671592;29;1484;-60
2023/08/06 01:36:59;;;;;;;5.10;2.90;;;;;;;13.84;100.00;99567.59;671425;29;4654;-61
2023/08/06 01:37:20;;;;;;;5.50;3.22;;;;;;;13.85;100.00;99567.53;671904;29;1885;-61
2023/08/06 01:37:41;;;;;;;4.83;2.87;;;;;;;13.85;100.00;99567.53;676252;29;802;-61
2023/08/06 01:38:03;;;;;;;4.57;2.55;;;;;;;13.85;100.00;99567.53;675307;29;876;-61
2023/08/06 01:38:25;;;;;;;4.45;2.50;;;;;;;13.83;100.00;99566.72;675146;29;1452;-61
2023/08/06 01:38:45;;;;;;;5.90;2.70;;;;;;;13.81;100.00;99563.28;673649;29;5256;-61
2023/08/06 01:39:06;;;;;;;6.50;2.70;;;;;;;13.82;100.00;99572.00;676170;29;787;-61
2023/08/06 01:39:26;;;;;;;5.50;2.70;;;;;;;13.84;100.00;99563.16;675877;29;1828;-61
2023/08/06 01:39:46;;;;;;;4.60;2.80;;;;;;;13.85;100.00;99567.53;675888;29;4503;-61
2023/08/06 01:40:11;;;;;;;4.50;2.88;;;;;;;13.84;100.00;99563.16;675243;29;1453;-62
2023/08/06 01:40:32;;;;;;;4.93;2.75;;;;;;;13.84;100.00;99559.69;674632;29;2308;-60
2023/08/06 01:40:53;;;;;;;4.80;2.60;;;;;;;13.84;100.00;99559.69;674052;29;1531;-61
2023/08/06 01:41:14;;;;;;;4.60;2.60;;;;;;;13.84;100.00;99555.28;672650;29;882;-61
2023/08/06 01:41:34;;;;;;;4.43;2.60;;;;;;;13.85;100.00;99562.28;672703;29;2178;-62
2023/08/06 01:41:54;;;;;;;5.28;2.60;;;;;;;13.83;100.00;99558.84;676770;29;1339;-61
2023/08/06 01:42:15;;;;;;;4.83;2.77;;;;;;;13.83;100.00;99561.47;674720;29;1557;-62
2023/08/06 01:42:35;;;;;;;4.87;2.83;;;;;;;13.83;100.00;99564.09;673557;29;1557;-61
2023/08/06 01:42:56;;;;;;;4.67;2.70;;;;;;;13.80;100.00;99558.94;677922;29;4612;-60
2023/08/06 01:43:16;;;;;;;5.80;2.80;;;;;;;13.78;100.00;99559.00;677039;29;1205;-62
2023/08/06 01:43:36;;;;;;;6.82;2.85;;;;;;;13.79;100.00;99559.88;676362;29;1351;-62
2023/08/06 01:43:57;;;;;;;5.07;2.80;;;;;;;13.84;100.00;99555.28;675373;29;1392;-62
2023/08/06 01:44:18;;;;;;;5.10;2.67;;;;;;;13.83;100.00;99561.47;677272;29;1641;-62
2023/08/06 01:44:38;;;;;;;5.33;2.70;;;;;;;13.82;100.00;99562.38;675813;29;1860;-61
2023/08/06 01:44:58;;;;;;;5.53;2.67;;;;;;;13.81;100.00;99560.66;676455;29;1368;-61
2023/08/06 01:45:21;;;;;;;5.78;2.67;;;;;;;13.79;100.00;99560.72;672592;29;2250;-61
2023/08/06 01:45:43;;;;;;;5.32;2.90;;;;;;;13.77;100.00;99565.16;670436;29;4422;-61
2023/08/06 01:46:03;;;;;;;4.72;2.80;;;;;;;13.80;100.00;99558.94;672742;29;957;-60